Time,TemperatureF,DewpointF,PressureIn,WindDirection,WindDirectionDegrees,WindSpeedMPH,WindSpeedGustMPH,Humidity,HourlyPrecipIn,Conditions,Clouds,dailyrainin,SoftwareType,DateUTC
2013-02-13 00:03:00,79.5,72.1,29.59,SSW,202,2.7,2.7,78,0.00,,,0.00,VWS V14.01,2013-02-12 14:03:00,
2013-02-13 00:08:00,79.3,71.9,29.59,SSW,202,2.7,2.7,78,0.00,,,0.00,VWS V14.01,2013-02-12 14:08:00,
2013-02-13 00:13:00,79.3,71.9,29.59,SSW,202,2.7,2.7,78,0.00,,,0.00,VWS V14.01,2013-02-12 14:13:00,
2013-02-13 00:18:00,79.3,71.9,29.59,SSW,202,2.7,2.7,78,0.00,,,0.00,VWS V14.01,2013-02-12 14:18:00,
2013-02-13 00:23:00,79.3,71.9,29.59,SSW,202,2.7,2.7,78,0.00,,,0.00,VWS V14.01,2013-02-12 14:23:00,
2013-02-13 00:28:00,79.2,71.7,29.56,SSW,202,2.7,2.7,78,0.00,,,0.00,VWS V14.01,2013-02-12 14:28:00,
2013-02-13 00:33:00,79.0,71.5,29.56,SSW,202,2.7,2.7,78,0.00,,,0.00,VWS V14.01,2013-02-12 14:33:00,
2013-02-13 00:38:00,79.0,71.5,29.56,SSW,202,2.7,2.7,78,0.00,,,0.00,VWS V14.01,2013-02-12 14:38:00,
2013-02-13 00:43:00,78.8,71.7,29.59,SSW,202,2.7,2.7,79,0.00,,,0.00,VWS V14.01,2013-02-12 14:43:00,
2013-02-13 00:48:00,78.8,71.7,29.59,SSW,202,2.7,2.7,79,0.00,,,0.00,VWS V14.01,2013-02-12 14:48:00,
2013-02-13 00:53:00,78.6,71.6,29.59,SSW,202,2.7,2.7,79,0.00,,,0.00,VWS V14.01,2013-02-12 14:53:00,
2013-02-13 06:00:00,75.0,69.2,29.56,SSE,158,1.3,1.3,82,0.00,,,0.00,VWS V14.01,2013-02-12 20:00:00,
2013-02-13 06:01:00,75.0,69.2,29.56,SSE,158,1.3,1.3,82,0.00,,,0.00,VWS V14.01,2013-02-12 20:01:00,
2013-02-13 06:02:00,75.0,69.2,29.56,SSE,158,1.3,1.3,82,0.00,,,0.00,VWS V14.01,2013-02-12 20:02:00,
2013-02-13 06:03:00,75.0,69.5,29.56,SSE,158,1.3,1.3,83,0.00,,,0.00,VWS V14.01,2013-02-12 20:03:00,
2013-02-13 06:04:00,75.0,69.5,29.56,SSE,158,1.3,1.3,83,0.00,,,0.00,VWS V14.01,2013-02-12 20:04:00,
2013-02-13 06:05:00,74.8,69.0,29.56,SSE,158,1.3,1.3,82,0.00,,,0.00,VWS V14.01,2013-02-12 20:05:00,
2013-02-13 06:06:00,74.8,69.0,29.56,SSE,158,1.3,1.3,82,0.00,,,0.00,VWS V14.01,2013-02-12 20:06:00,
2013-02-13 06:07:00,75.0,69.5,29.56,SSE,158,1.3,1.3,83,0.00,,,0.00,VWS V14.01,2013-02-12 20:07:00,
2013-02-13 06:08:00,75.0,69.5,29.56,SSE,158,1.3,1.3,83,0.00,,,0.00,VWS V14.01,2013-02-12 20:08:00,
2013-02-13 06:09:00,75.0,69.5,29.56,SSE,158,1.3,1.3,83,0.00,,,0.00,VWS V14.01,2013-02-12 20:09:00,
2013-02-13 06:10:00,75.0,69.5,29.56,SSE,158,1.3,1.3,83,0.00,,,0.00,VWS V14.01,2013-02-12 20:10:00,
2013-02-13 06:11:00,75.0,69.5,29.56,SSE,158,1.3,1.3,83,0.00,,,0.00,VWS V14.01,2013-02-12 20:11:00,
2013-02-13 06:12:00,75.0,69.5,29.56,SSE,158,1.3,1.3,83,0.00,,,0.00,VWS V14.01,2013-02-12 20:12:00,
2013-02-13 06:13:00,75.0,69.5,29.56,SSE,158,1.3,1.3,83,0.00,,,0.00,VWS V14.01,2013-02-12 20:13:00,
2013-02-13 06:14:00,75.0,69.5,29.56,SSE,158,1.3,1.3,83,0.00,,,0.00,VWS V14.01,2013-02-12 20:14:00,
2013-02-13 06:15:00,75.2,69.7,29.56,SSE,158,1.3,1.3,83,0.00,,,0.00,VWS V14.01,2013-02-12 20:15:00,
2013-02-13 06:16:00,75.2,69.7,29.56,SSE,158,1.3,1.3,83,0.00,,,0.00,VWS V14.01,2013-02-12 20:16:00,
2013-02-13 06:17:00,75.2,69.7,29.56,SSE,158,1.3,1.3,83,0.00,,,0.00,VWS V14.01,2013-02-12 20:17:00,
2013-02-13 06:18:00,75.2,69.7,29.56,SSE,158,1.3,1.3,83,0.00,,,0.00,VWS V14.01,2013-02-12 20:18:00,
2013-02-13 06:19:00,75.0,69.5,29.56,SSE,158,1.3,1.3,83,0.00,,,0.00,VWS V14.01,2013-02-12 20:19:00,
2013-02-13 06:20:00,75.0,69.5,29.56,SSE,158,1.3,1.3,83,0.00,,,0.00,VWS V14.01,2013-02-12 20:20:00,
2013-02-13 06:21:00,75.0,69.5,29.56,SSE,158,1.3,1.3,83,0.00,,,0.00,VWS V14.01,2013-02-12 20:21:00,
2013-02-13 06:22:00,75.0,69.5,29.56,SSE,158,1.3,1.3,83,0.00,,,0.00,VWS V14.01,2013-02-12 20:22:00,
2013-02-13 06:23:00,74.8,69.3,29.56,SSE,158,1.3,1.3,83,0.00,,,0.00,VWS V14.01,2013-02-12 20:23:00,
2013-02-13 06:24:00,74.8,69.3,29.56,SSE,158,1.3,1.3,83,0.00,,,0.00,VWS V14.01,2013-02-12 20:24:00,
2013-02-13 06:25:00,74.8,69.3,29.56,SSE,158,1.3,1.3,83,0.00,,,0.00,VWS V14.01,2013-02-12 20:25:00,
2013-02-13 06:26:00,74.8,69.3,29.56,SSE,158,1.3,1.3,83,0.00,,,0.00,VWS V14.01,2013-02-12 20:26:00,
2013-02-13 06:27:00,74.8,69.3,29.56,SSE,158,1.3,1.3,83,0.00,,,0.00,VWS V14.01,2013-02-12 20:27:00,
2013-02-13 06:28:00,75.0,69.5,29.56,SSE,158,1.3,1.3,83,0.00,,,0.00,VWS V14.01,2013-02-12 20:28:00,
2013-02-13 06:29:00,75.0,69.5,29.56,SSE,158,1.3,1.3,83,0.00,,,0.00,VWS V14.01,2013-02-12 20:29:00,
2013-02-13 06:30:00,75.2,69.7,29.56,SSE,158,1.3,1.3,83,0.00,,,0.00,VWS V14.01,2013-02-12 20:30:00,
2013-02-13 06:31:00,75.2,69.7,29.56,SSE,158,1.3,1.3,83,0.00,,,0.00,VWS V14.01,2013-02-12 20:31:00,
2013-02-13 06:32:00,75.2,69.7,29.56,SSE,158,1.3,1.3,83,0.00,,,0.00,VWS V14.01,2013-02-12 20:32:00,
2013-02-13 06:33:00,75.2,69.7,29.56,SSE,158,1.3,1.3,83,0.00,,,0.00,VWS V14.01,2013-02-12 20:33:00,
2013-02-13 06:34:00,75.2,69.7,29.56,SSE,158,1.3,1.3,83,0.00,,,0.00,VWS V14.01,2013-02-12 20:34:00,
2013-02-13 06:35:00,75.2,69.7,29.56,SSE,158,1.3,1.3,83,0.00,,,0.00,VWS V14.01,2013-02-12 20:35:00,
2013-02-13 06:36:00,75.2,69.7,29.56,SSE,158,1.3,1.3,83,0.00,,,0.00,VWS V14.01,2013-02-12 20:36:00,
2013-02-13 06:37:00,75.2,69.7,29.56,SSE,158,1.3,1.3,83,0.00,,,0.00,VWS V14.01,2013-02-12 20:37:00,
2013-02-13 06:38:00,75.2,69.7,29.56,SSE,158,1.3,1.3,83,0.00,,,0.00,VWS V14.01,2013-02-12 20:38:00,
2013-02-13 06:39:00,75.2,69.7,29.56,SSE,158,1.3,1.3,83,0.00,,,0.00,VWS V14.01,2013-02-12 20:39:00,
2013-02-13 06:40:00,75.2,69.7,29.56,SSE,158,1.3,1.3,83,0.00,,,0.00,VWS V14.01,2013-02-12 20:40:00,
2013-02-13 06:41:00,75.2,69.7,29.56,SSE,158,1.3,1.3,83,0.00,,,0.00,VWS V14.01,2013-02-12 20:41:00,
2013-02-13 06:42:00,75.4,69.9,29.56,SSE,158,1.3,1.3,83,0.00,,,0.00,VWS V14.01,2013-02-12 20:42:00,
2013-02-13 06:43:00,75.4,69.9,29.56,SSE,158,1.3,1.3,83,0.00,,,0.00,VWS V14.01,2013-02-12 20:43:00,
2013-02-13 06:44:00,75.4,69.9,29.56,SSE,158,1.3,1.3,83,0.00,,,0.00,VWS V14.01,2013-02-12 20:44:00,
2013-02-13 06:45:00,75.4,69.9,29.56,SSE,158,1.3,1.3,83,0.00,,,0.00,VWS V14.01,2013-02-12 20:45:00,
2013-02-13 06:46:00,75.4,69.9,29.56,SSE,158,1.3,1.3,83,0.00,,,0.00,VWS V14.01,2013-02-12 20:46:00,
2013-02-13 06:47:00,75.4,69.9,29.56,SSE,158,1.3,1.3,83,0.00,,,0.00,VWS V14.01,2013-02-12 20:47:00,
2013-02-13 06:48:00,75.4,69.9,29.56,SSE,158,1.3,1.3,83,0.00,,,0.00,VWS V14.01,2013-02-12 20:48:00,
2013-02-13 06:49:00,75.4,69.9,29.56,SSE,158,1.3,1.3,83,0.00,,,0.00,VWS V14.01,2013-02-12 20:49:00,
2013-02-13 06:50:00,75.4,69.9,29.56,SSE,158,1.3,1.3,83,0.00,,,0.00,VWS V14.01,2013-02-12 20:50:00,
2013-02-13 06:51:00,75.4,69.9,29.56,SSE,158,1.3,1.3,83,0.00,,,0.00,VWS V14.01,2013-02-12 20:51:00,
2013-02-13 06:52:00,75.4,69.9,29.56,SSE,158,1.3,1.3,83,0.00,,,0.00,VWS V14.01,2013-02-12 20:52:00,
2013-02-13 06:53:00,75.4,69.9,29.56,SSE,158,1.3,1.3,83,0.00,,,0.00,VWS V14.01,2013-02-12 20:53:00,
2013-02-13 06:54:00,75.4,69.9,29.56,SSE,158,1.3,1.3,83,0.00,,,0.00,VWS V14.01,2013-02-12 20:54:00,
2013-02-13 06:55:00,75.4,69.9,29.56,SSE,158,1.3,1.3,83,0.00,,,0.00,VWS V14.01,2013-02-12 20:55:00,
2013-02-13 06:56:00,75.4,69.9,29.56,SSE,158,1.3,1.3,83,0.00,,,0.00,VWS V14.01,2013-02-12 20:56:00,
2013-02-13 06:57:00,75.4,69.9,29.56,SSE,158,1.3,1.3,83,0.00,,,0.00,VWS V14.01,2013-02-12 20:57:00,
2013-02-13 06:58:00,75.6,70.0,29.56,SSE,158,1.3,1.3,83,0.00,,,0.00,VWS V14.01,2013-02-12 20:58:00,
2013-02-13 06:59:00,75.6,70.0,29.56,SSE,158,1.3,1.3,83,0.00,,,0.00,VWS V14.01,2013-02-12 20:59:00,
2013-02-13 07:00:00,75.7,70.2,29.56,SSE,158,1.3,1.3,83,0.00,,,0.00,VWS V14.01,2013-02-12 21:00:00,
2013-02-13 07:01:00,75.7,70.2,29.56,SSE,158,1.3,1.3,83,0.00,,,0.00,VWS V14.01,2013-02-12 21:01:00,
2013-02-13 07:02:00,75.7,70.2,29.56,SSE,158,1.3,1.3,83,0.00,,,0.00,VWS V14.01,2013-02-12 21:02:00,
2013-02-13 07:03:00,75.7,70.2,29.56,SSE,158,1.3,1.3,83,0.00,,,0.00,VWS V14.01,2013-02-12 21:03:00,
2013-02-13 07:04:00,75.7,70.2,29.56,SSE,158,1.3,1.3,83,0.00,,,0.00,VWS V14.01,2013-02-12 21:04:00,
2013-02-13 07:05:00,75.7,70.2,29.56,SSE,158,1.3,1.3,83,0.00,,,0.00,VWS V14.01,2013-02-12 21:05:00,
2013-02-13 07:06:00,75.7,70.2,29.56,SSE,158,1.3,1.3,83,0.00,,,0.00,VWS V14.01,2013-02-12 21:06:00,
2013-02-13 07:07:00,75.7,70.2,29.56,SSE,158,1.3,1.3,83,0.00,,,0.00,VWS V14.01,2013-02-12 21:07:00,
2013-02-13 07:08:00,75.7,70.2,29.56,SSE,158,1.3,1.3,83,0.00,,,0.00,VWS V14.01,2013-02-12 21:08:00,
2013-02-13 07:09:00,75.6,70.0,29.56,SSE,158,1.3,1.3,83,0.00,,,0.00,VWS V14.01,2013-02-12 21:09:00,
2013-02-13 07:10:00,75.6,70.0,29.56,SSE,158,1.3,1.3,83,0.00,,,0.00,VWS V14.01,2013-02-12 21:10:00,
2013-02-13 07:11:00,75.7,70.2,29.56,SSE,158,1.3,1.3,83,0.00,,,0.00,VWS V14.01,2013-02-12 21:11:00,
2013-02-13 07:12:00,75.7,70.2,29.56,SSE,158,1.3,1.3,83,0.00,,,0.00,VWS V14.01,2013-02-12 21:12:00,
2013-02-13 07:13:00,75.7,70.2,29.56,SSE,158,1.3,1.3,83,0.00,,,0.00,VWS V14.01,2013-02-12 21:13:00,
2013-02-13 07:14:00,75.7,70.2,29.56,SSE,158,1.3,1.3,83,0.00,,,0.00,VWS V14.01,2013-02-12 21:14:00,
2013-02-13 07:15:00,75.7,70.2,29.56,SSE,158,1.3,1.3,83,0.00,,,0.00,VWS V14.01,2013-02-12 21:15:00,
2013-02-13 07:16:00,75.7,70.6,29.56,South,180,0.0,1.3,84,0.00,,,0.00,VWS V14.01,2013-02-12 21:16:00,
2013-02-13 07:17:00,75.7,70.6,29.56,South,180,0.0,0.0,84,0.00,,,0.00,VWS V14.01,2013-02-12 21:17:00,
2013-02-13 07:18:00,75.9,70.7,29.56,South,180,0.0,0.0,84,0.00,,,0.00,VWS V14.01,2013-02-12 21:18:00,
2013-02-13 07:19:00,75.9,70.7,29.56,South,180,0.0,0.0,84,0.00,,,0.00,VWS V14.01,2013-02-12 21:19:00,
2013-02-13 07:20:00,75.9,70.7,29.56,South,180,0.0,0.0,84,0.00,,,0.00,VWS V14.01,2013-02-12 21:20:00,
2013-02-13 07:21:00,76.1,70.9,29.56,South,180,0.0,0.0,84,0.00,,,0.00,VWS V14.01,2013-02-12 21:21:00,
2013-02-13 07:22:00,76.1,70.9,29.56,South,180,0.0,0.0,84,0.00,,,0.00,VWS V14.01,2013-02-12 21:22:00,
2013-02-13 07:23:00,76.1,70.9,29.56,South,180,0.0,0.0,84,0.00,,,0.00,VWS V14.01,2013-02-12 21:23:00,
2013-02-13 07:24:00,76.1,70.9,29.56,South,180,0.0,0.0,84,0.00,,,0.00,VWS V14.01,2013-02-12 21:24:00,
2013-02-13 07:25:00,76.3,71.1,29.56,South,180,0.0,0.0,84,0.00,,,0.00,VWS V14.01,2013-02-12 21:25:00,
2013-02-13 07:26:00,76.3,71.1,29.56,South,180,0.0,0.0,84,0.00,,,0.00,VWS V14.01,2013-02-12 21:26:00,
2013-02-13 07:27:00,76.3,71.1,29.56,South,180,0.0,0.0,84,0.00,,,0.00,VWS V14.01,2013-02-12 21:27:00,
2013-02-13 07:28:00,76.3,70.7,29.56,South,180,0.0,0.0,83,0.00,,,0.00,VWS V14.01,2013-02-12 21:28:00,
2013-02-13 07:29:00,76.3,70.7,29.56,South,180,0.0,0.0,83,0.00,,,0.00,VWS V14.01,2013-02-12 21:29:00,
2013-02-13 07:30:00,76.5,70.9,29.56,South,180,0.0,0.0,83,0.00,,,0.00,VWS V14.01,2013-02-12 21:30:00,
2013-02-13 07:31:00,76.5,70.9,29.56,South,180,0.0,0.0,83,0.00,,,0.00,VWS V14.01,2013-02-12 21:31:00,
2013-02-13 07:32:00,76.3,70.7,29.56,South,180,0.0,0.0,83,0.00,,,0.00,VWS V14.01,2013-02-12 21:32:00,
2013-02-13 07:33:00,76.3,70.7,29.56,South,180,0.0,0.0,83,0.00,,,0.00,VWS V14.01,2013-02-12 21:33:00,
2013-02-13 07:34:00,76.3,70.7,29.56,South,180,0.0,0.0,83,0.00,,,0.00,VWS V14.01,2013-02-12 21:34:00,
2013-02-13 07:35:00,76.5,71.3,29.56,South,180,0.0,0.0,84,0.00,,,0.00,VWS V14.01,2013-02-12 21:35:00,
2013-02-13 07:36:00,76.5,71.3,29.56,South,180,0.0,0.0,84,0.00,,,0.00,VWS V14.01,2013-02-12 21:36:00,
2013-02-13 07:37:00,76.5,71.3,29.56,South,180,0.0,0.0,84,0.00,,,0.00,VWS V14.01,2013-02-12 21:37:00,
2013-02-13 07:38:00,76.5,71.3,29.56,South,180,0.0,0.0,84,0.00,,,0.00,VWS V14.01,2013-02-12 21:38:00,
2013-02-13 07:39:00,76.5,71.3,29.56,South,180,0.0,0.0,84,0.00,,,0.00,VWS V14.01,2013-02-12 21:39:00,
2013-02-13 07:40:00,76.5,71.3,29.56,South,180,0.0,0.0,84,0.00,,,0.00,VWS V14.01,2013-02-12 21:40:00,
2013-02-13 07:41:00,76.6,71.4,29.59,South,180,0.0,0.0,84,0.00,,,0.00,VWS V14.01,2013-02-12 21:41:00,
2013-02-13 07:42:00,76.8,71.6,29.59,South,180,0.0,0.0,84,0.00,,,0.00,VWS V14.01,2013-02-12 21:42:00,
2013-02-13 07:43:00,76.8,71.6,29.59,South,180,0.0,0.0,84,0.00,,,0.00,VWS V14.01,2013-02-12 21:43:00,
2013-02-13 07:44:00,76.8,71.6,29.59,South,180,0.0,0.0,84,0.00,,,0.00,VWS V14.01,2013-02-12 21:44:00,
2013-02-13 07:45:00,76.8,71.6,29.59,South,180,0.0,0.0,84,0.00,,,0.00,VWS V14.01,2013-02-12 21:45:00,
2013-02-13 07:46:00,77.0,71.4,29.59,South,180,0.0,0.0,83,0.00,,,0.00,VWS V14.01,2013-02-12 21:46:00,
2013-02-13 07:47:00,77.0,71.4,29.59,South,180,0.0,0.0,83,0.00,,,0.00,VWS V14.01,2013-02-12 21:47:00,
2013-02-13 07:48:00,77.0,71.8,29.59,South,180,0.0,0.0,84,0.00,,,0.00,VWS V14.01,2013-02-12 21:48:00,
2013-02-13 07:49:00,77.0,71.4,29.59,South,180,0.0,0.0,83,0.00,,,0.00,VWS V14.01,2013-02-12 21:49:00,
2013-02-13 07:50:00,77.0,71.4,29.59,South,180,0.0,0.0,83,0.00,,,0.00,VWS V14.01,2013-02-12 21:50:00,
2013-02-13 07:51:00,77.0,71.4,29.59,South,180,0.0,0.0,83,0.00,,,0.00,VWS V14.01,2013-02-12 21:51:00,
2013-02-13 07:52:00,77.0,71.4,29.59,South,180,0.0,0.0,83,0.00,,,0.00,VWS V14.01,2013-02-12 21:52:00,
2013-02-13 07:53:00,77.4,72.2,29.59,South,180,0.0,0.0,84,0.00,,,0.00,VWS V14.01,2013-02-12 21:53:00,
2013-02-13 07:55:00,77.4,72.2,29.59,South,180,0.0,0.0,84,0.00,,,0.00,VWS V14.01,2013-02-12 21:55:00,
2013-02-13 07:56:00,77.7,72.2,29.59,South,180,0.0,0.0,83,0.00,,,0.00,VWS V14.01,2013-02-12 21:56:00,
2013-02-13 07:57:00,77.7,72.2,29.59,South,180,0.0,0.0,83,0.00,,,0.00,VWS V14.01,2013-02-12 21:57:00,
2013-02-13 07:58:00,77.9,72.7,29.59,South,180,0.0,0.0,84,0.00,,,0.00,VWS V14.01,2013-02-12 21:58:00,
2013-02-13 07:59:00,77.9,72.7,29.59,South,180,0.0,0.0,84,0.00,,,0.00,VWS V14.01,2013-02-12 21:59:00,
2013-02-13 08:00:00,78.1,72.9,29.59,South,180,0.0,0.0,84,0.00,,,0.00,VWS V14.01,2013-02-12 22:00:00,
2013-02-13 08:01:00,78.1,72.9,29.59,South,180,0.0,0.0,84,0.00,,,0.00,VWS V14.01,2013-02-12 22:01:00,
2013-02-13 08:02:00,78.1,72.9,29.59,South,180,0.0,0.0,84,0.00,,,0.00,VWS V14.01,2013-02-12 22:02:00,
2013-02-13 08:03:00,78.1,72.9,29.59,South,180,0.0,0.0,84,0.00,,,0.00,VWS V14.01,2013-02-12 22:03:00,
2013-02-13 08:04:00,78.3,73.0,29.59,South,180,0.0,0.0,84,0.00,,,0.00,VWS V14.01,2013-02-12 22:04:00,
2013-02-13 08:05:00,78.3,73.0,29.59,South,180,0.0,0.0,84,0.00,,,0.00,VWS V14.01,2013-02-12 22:05:00,
2013-02-13 08:06:00,78.3,73.0,29.59,South,180,0.0,0.0,84,0.00,,,0.00,VWS V14.01,2013-02-12 22:06:00,
2013-02-13 08:07:00,78.3,72.7,29.59,South,180,0.0,0.0,83,0.00,,,0.00,VWS V14.01,2013-02-12 22:07:00,
2013-02-13 08:08:00,78.3,72.7,29.59,South,180,0.0,0.0,83,0.00,,,0.00,VWS V14.01,2013-02-12 22:08:00,
2013-02-13 08:09:00,78.3,72.7,29.59,South,180,0.0,0.0,83,0.00,,,0.00,VWS V14.01,2013-02-12 22:09:00,
2013-02-13 08:10:00,78.3,72.7,29.59,South,180,0.0,0.0,83,0.00,,,0.00,VWS V14.01,2013-02-12 22:10:00,
2013-02-13 08:11:00,78.4,72.8,29.59,South,180,0.0,0.0,83,0.00,,,0.00,VWS V14.01,2013-02-12 22:11:00,
2013-02-13 08:12:00,78.4,72.8,29.59,South,180,0.0,0.0,83,0.00,,,0.00,VWS V14.01,2013-02-12 22:12:00,
2013-02-13 08:13:00,78.4,72.8,29.59,South,180,0.0,0.0,83,0.00,,,0.00,VWS V14.01,2013-02-12 22:13:00,
2013-02-13 08:14:00,78.6,72.7,29.59,South,180,0.0,0.0,82,0.00,,,0.00,VWS V14.01,2013-02-12 22:14:00,
2013-02-13 08:15:00,78.6,72.7,29.59,South,180,0.0,0.0,82,0.00,,,0.00,VWS V14.01,2013-02-12 22:15:00,
2013-02-13 08:17:00,78.6,72.7,29.59,South,180,0.0,0.0,82,0.00,,,0.00,VWS V14.01,2013-02-12 22:17:00,
2013-02-13 08:18:00,78.8,72.1,29.59,South,180,0.0,0.0,80,0.00,,,0.00,VWS V14.01,2013-02-12 22:18:00,
2013-02-13 08:19:00,79.0,72.3,29.59,South,180,0.0,0.0,80,0.00,,,0.00,VWS V14.01,2013-02-12 22:19:00,
2013-02-13 08:20:00,79.0,72.3,29.59,South,180,0.0,0.0,80,0.00,,,0.00,VWS V14.01,2013-02-12 22:20:00,
2013-02-13 08:21:00,79.0,72.3,29.59,South,180,0.0,0.0,80,0.00,,,0.00,VWS V14.01,2013-02-12 22:21:00,
2013-02-13 08:22:00,79.0,72.3,29.59,South,180,0.0,0.0,80,0.00,,,0.00,VWS V14.01,2013-02-12 22:22:00,
2013-02-13 08:23:00,79.2,72.5,29.59,South,180,0.0,0.0,80,0.00,,,0.00,VWS V14.01,2013-02-12 22:23:00,
2013-02-13 08:24:00,79.2,72.5,29.59,South,180,0.0,0.0,80,0.00,,,0.00,VWS V14.01,2013-02-12 22:24:00,
2013-02-13 08:25:00,79.3,72.6,29.59,South,180,0.0,0.0,80,0.00,,,0.00,VWS V14.01,2013-02-12 22:25:00,
2013-02-13 08:26:00,79.3,72.6,29.59,South,180,0.0,0.0,80,0.00,,,0.00,VWS V14.01,2013-02-12 22:26:00,
2013-02-13 08:27:00,79.3,72.3,29.59,South,180,0.0,0.0,79,0.00,,,0.00,VWS V14.01,2013-02-12 22:27:00,
2013-02-13 08:28:00,79.5,72.4,29.59,South,180,0.0,0.0,79,0.00,,,0.00,VWS V14.01,2013-02-12 22:28:00,
2013-02-13 08:29:00,79.5,72.4,29.59,South,180,0.0,0.0,79,0.00,,,0.00,VWS V14.01,2013-02-12 22:29:00,
2013-02-13 08:30:00,79.7,72.6,29.59,South,180,0.0,0.0,79,0.00,,,0.00,VWS V14.01,2013-02-12 22:30:00,
2013-02-13 08:31:00,79.7,72.6,29.59,South,180,0.0,0.0,79,0.00,,,0.00,VWS V14.01,2013-02-12 22:31:00,
2013-02-13 08:32:00,79.7,72.6,29.59,South,180,0.0,0.0,79,0.00,,,0.00,VWS V14.01,2013-02-12 22:32:00,
2013-02-13 08:33:00,79.7,72.6,29.59,South,180,0.0,0.0,79,0.00,,,0.00,VWS V14.01,2013-02-12 22:33:00,
2013-02-13 08:34:00,79.7,72.6,29.59,South,180,0.0,0.0,79,0.00,,,0.00,VWS V14.01,2013-02-12 22:34:00,
2013-02-13 08:35:00,79.9,72.8,29.59,South,180,0.0,0.0,79,0.00,,,0.00,VWS V14.01,2013-02-12 22:35:00,
2013-02-13 08:36:00,79.9,72.8,29.59,South,180,0.0,0.0,79,0.00,,,0.00,VWS V14.01,2013-02-12 22:36:00,
2013-02-13 08:37:00,79.9,72.8,29.59,South,180,0.0,0.0,79,0.00,,,0.00,VWS V14.01,2013-02-12 22:37:00,
2013-02-13 08:38:00,79.9,72.8,29.59,South,180,0.0,0.0,79,0.00,,,0.00,VWS V14.01,2013-02-12 22:38:00,
2013-02-13 08:39:00,80.1,72.6,29.59,South,180,0.0,0.0,78,0.00,,,0.00,VWS V14.01,2013-02-12 22:39:00,
2013-02-13 08:40:00,80.1,72.6,29.59,South,180,0.0,0.0,78,0.00,,,0.00,VWS V14.01,2013-02-12 22:40:00,
2013-02-13 08:41:00,80.2,72.8,29.59,South,180,0.0,0.0,78,0.00,,,0.00,VWS V14.01,2013-02-12 22:41:00,
2013-02-13 08:42:00,80.2,72.8,29.59,South,180,0.0,0.0,78,0.00,,,0.00,VWS V14.01,2013-02-12 22:42:00,
2013-02-13 08:43:00,80.2,72.8,29.59,South,180,0.0,0.0,78,0.00,,,0.00,VWS V14.01,2013-02-12 22:43:00,
2013-02-13 08:44:00,80.4,72.9,29.59,South,180,0.0,0.0,78,0.00,,,0.00,VWS V14.01,2013-02-12 22:44:00,
2013-02-13 08:45:00,80.4,72.9,29.59,South,180,0.0,0.0,78,0.00,,,0.00,VWS V14.01,2013-02-12 22:45:00,
2013-02-13 08:46:00,80.4,72.9,29.59,South,180,0.0,0.0,78,0.00,,,0.00,VWS V14.01,2013-02-12 22:46:00,
2013-02-13 08:47:00,80.4,72.9,29.59,South,180,0.0,0.0,78,0.00,,,0.00,VWS V14.01,2013-02-12 22:47:00,
2013-02-13 08:48:00,80.6,72.7,29.59,South,180,0.0,0.0,77,0.00,,,0.00,VWS V14.01,2013-02-12 22:48:00,
2013-02-13 08:49:00,80.6,72.7,29.59,South,180,0.0,0.0,77,0.00,,,0.00,VWS V14.01,2013-02-12 22:49:00,
2013-02-13 08:50:00,80.6,73.1,29.59,South,180,0.0,0.0,78,0.00,,,0.00,VWS V14.01,2013-02-12 22:50:00,
2013-02-13 08:51:00,80.8,72.9,29.59,South,180,0.0,0.0,77,0.00,,,0.00,VWS V14.01,2013-02-12 22:51:00,
2013-02-13 08:52:00,80.8,72.9,29.59,South,180,0.0,0.0,77,0.00,,,0.00,VWS V14.01,2013-02-12 22:52:00,
2013-02-13 08:53:00,80.8,72.9,29.59,South,180,0.0,0.0,77,0.00,,,0.00,VWS V14.01,2013-02-12 22:53:00,
2013-02-13 08:54:00,80.8,72.9,29.59,South,180,0.0,0.0,77,0.00,,,0.00,VWS V14.01,2013-02-12 22:54:00,
2013-02-13 08:55:00,81.0,73.1,29.59,South,180,0.0,0.0,77,0.00,,,0.00,VWS V14.01,2013-02-12 22:55:00,
2013-02-13 08:56:00,81.0,73.1,29.59,South,180,0.0,0.0,77,0.00,,,0.00,VWS V14.01,2013-02-12 22:56:00,
2013-02-13 08:57:00,81.1,73.2,29.59,South,180,0.0,0.0,77,0.00,,,0.00,VWS V14.01,2013-02-12 22:57:00,
2013-02-13 08:58:00,81.5,73.6,29.59,South,180,0.0,0.0,77,0.00,,,0.00,VWS V14.01,2013-02-12 22:58:00,
2013-02-13 08:59:00,81.5,73.6,29.59,South,180,0.0,0.0,77,0.00,,,0.00,VWS V14.01,2013-02-12 22:59:00,
2013-02-13 09:00:00,81.7,73.8,29.59,South,180,0.0,0.0,77,0.00,,,0.00,VWS V14.01,2013-02-12 23:00:00,
2013-02-13 09:01:00,81.9,73.6,29.59,South,180,0.0,0.0,76,0.00,,,0.00,VWS V14.01,2013-02-12 23:01:00,
2013-02-13 09:02:00,81.9,73.6,29.59,South,180,0.0,0.0,76,0.00,,,0.00,VWS V14.01,2013-02-12 23:02:00,
2013-02-13 09:03:00,81.9,73.6,29.59,South,180,0.0,0.0,76,0.00,,,0.00,VWS V14.01,2013-02-12 23:03:00,
2013-02-13 09:04:00,82.2,73.9,29.59,South,180,0.0,0.0,76,0.00,,,0.00,VWS V14.01,2013-02-12 23:04:00,
2013-02-13 09:05:00,82.2,73.9,29.59,South,180,0.0,0.0,76,0.00,,,0.00,VWS V14.01,2013-02-12 23:05:00,
2013-02-13 09:06:00,82.2,73.9,29.59,South,180,0.0,0.0,76,0.00,,,0.00,VWS V14.01,2013-02-12 23:06:00,
2013-02-13 09:07:00,82.2,73.9,29.59,South,180,0.0,0.0,76,0.00,,,0.00,VWS V14.01,2013-02-12 23:07:00,
2013-02-13 09:08:00,82.2,73.9,29.59,South,180,0.0,0.0,76,0.00,,,0.00,VWS V14.01,2013-02-12 23:08:00,
2013-02-13 09:09:00,82.6,73.9,29.59,South,180,0.0,0.0,75,0.00,,,0.00,VWS V14.01,2013-02-12 23:09:00,
2013-02-13 09:10:00,82.6,73.9,29.59,South,180,0.0,0.0,75,0.00,,,0.00,VWS V14.01,2013-02-12 23:10:00,
2013-02-13 09:11:00,82.6,73.9,29.59,South,180,0.0,0.0,75,0.00,,,0.00,VWS V14.01,2013-02-12 23:11:00,
2013-02-13 09:12:00,82.8,74.0,29.59,South,180,0.0,0.0,75,0.00,,,0.00,VWS V14.01,2013-02-12 23:12:00,
2013-02-13 09:13:00,82.8,74.0,29.59,South,180,0.0,0.0,75,0.00,,,0.00,VWS V14.01,2013-02-12 23:13:00,
2013-02-13 09:14:00,83.1,74.4,29.59,South,180,0.0,0.0,75,0.00,,,0.00,VWS V14.01,2013-02-12 23:14:00,
2013-02-13 09:15:00,83.1,74.4,29.59,South,180,0.0,0.0,75,0.00,,,0.00,VWS V14.01,2013-02-12 23:15:00,
2013-02-13 09:16:00,83.3,74.6,29.59,South,180,0.0,0.0,75,0.00,,,0.00,VWS V14.01,2013-02-12 23:16:00,
2013-02-13 09:17:00,83.3,74.6,29.59,South,180,0.0,0.0,75,0.00,,,0.00,VWS V14.01,2013-02-12 23:17:00,
2013-02-13 09:18:00,83.3,74.6,29.59,South,180,0.0,0.0,75,0.00,,,0.00,VWS V14.01,2013-02-12 23:18:00,
2013-02-13 09:19:00,83.3,74.6,29.59,South,180,0.0,0.0,75,0.00,,,0.00,VWS V14.01,2013-02-12 23:19:00,
2013-02-13 09:20:00,83.3,74.6,29.59,South,180,0.0,0.0,75,0.00,,,0.00,VWS V14.01,2013-02-12 23:20:00,
2013-02-13 09:21:00,83.7,74.5,29.59,South,180,0.0,0.0,74,0.00,,,0.00,VWS V14.01,2013-02-12 23:21:00,
2013-02-13 09:22:00,83.8,74.7,29.59,South,180,0.0,0.0,74,0.00,,,0.00,VWS V14.01,2013-02-12 23:22:00,
2013-02-13 09:23:00,83.8,74.7,29.59,South,180,0.0,0.0,74,0.00,,,0.00,VWS V14.01,2013-02-12 23:23:00,
2013-02-13 09:24:00,83.8,74.7,29.59,South,180,0.0,0.0,74,0.00,,,0.00,VWS V14.01,2013-02-12 23:24:00,
2013-02-13 09:25:00,83.8,74.7,29.59,South,180,0.0,0.0,74,0.00,,,0.00,VWS V14.01,2013-02-12 23:25:00,
2013-02-13 09:26:00,83.8,74.7,29.59,South,180,0.0,0.0,74,0.00,,,0.00,VWS V14.01,2013-02-12 23:26:00,
2013-02-13 09:27:00,83.8,74.3,29.59,South,180,0.0,0.0,73,0.00,,,0.00,VWS V14.01,2013-02-12 23:27:00,
2013-02-13 09:28:00,84.0,74.4,29.59,South,180,0.0,0.0,73,0.00,,,0.00,VWS V14.01,2013-02-12 23:28:00,
2013-02-13 09:29:00,84.0,74.4,29.59,South,180,0.0,0.0,73,0.00,,,0.00,VWS V14.01,2013-02-12 23:29:00,
2013-02-13 09:30:00,84.2,74.6,29.59,South,180,0.0,0.0,73,0.00,,,0.00,VWS V14.01,2013-02-12 23:30:00,
2013-02-13 09:31:00,84.2,74.6,29.59,South,180,0.0,0.0,73,0.00,,,0.00,VWS V14.01,2013-02-12 23:31:00,
2013-02-13 09:32:00,84.0,74.4,29.59,South,180,0.0,0.0,73,0.00,,,0.00,VWS V14.01,2013-02-12 23:32:00,
2013-02-13 09:33:00,84.0,74.4,29.59,South,180,0.0,0.0,73,0.00,,,0.00,VWS V14.01,2013-02-12 23:33:00,
2013-02-13 09:34:00,84.2,74.6,29.59,South,180,0.0,0.0,73,0.00,,,0.00,VWS V14.01,2013-02-12 23:34:00,
2013-02-13 09:35:00,84.4,74.4,29.59,South,180,0.0,0.0,72,0.00,,,0.00,VWS V14.01,2013-02-12 23:35:00,
2013-02-13 09:36:00,84.4,74.4,29.59,South,180,0.0,0.0,72,0.00,,,0.00,VWS V14.01,2013-02-12 23:36:00,
2013-02-13 09:37:00,84.4,74.4,29.59,South,180,0.0,0.0,72,0.00,,,0.00,VWS V14.01,2013-02-12 23:37:00,
2013-02-13 09:38:00,84.4,74.4,29.59,South,180,0.0,0.0,72,0.00,,,0.00,VWS V14.01,2013-02-12 23:38:00,
2013-02-13 09:39:00,84.6,74.5,29.59,South,180,0.0,0.0,72,0.00,,,0.00,VWS V14.01,2013-02-12 23:39:00,
2013-02-13 09:40:00,84.6,74.5,29.59,South,180,0.0,0.0,72,0.00,,,0.00,VWS V14.01,2013-02-12 23:40:00,
2013-02-13 09:41:00,84.6,74.5,29.59,South,180,0.0,0.0,72,0.00,,,0.00,VWS V14.01,2013-02-12 23:41:00,
2013-02-13 09:42:00,84.6,74.5,29.59,South,180,0.0,0.0,72,0.00,,,0.00,VWS V14.01,2013-02-12 23:42:00,
2013-02-13 09:43:00,84.7,74.7,29.59,South,180,0.0,0.0,72,0.00,,,0.00,VWS V14.01,2013-02-12 23:43:00,
2013-02-13 09:44:00,84.7,74.7,29.59,South,180,0.0,0.0,72,0.00,,,0.00,VWS V14.01,2013-02-12 23:44:00,
2013-02-13 09:45:00,84.7,74.7,29.59,South,180,0.0,0.0,72,0.00,,,0.00,VWS V14.01,2013-02-12 23:45:00,
2013-02-13 09:47:00,84.7,74.7,29.59,South,180,0.0,0.0,72,0.00,,,0.00,VWS V14.01,2013-02-12 23:47:00,
2013-02-13 09:48:00,84.7,74.3,29.59,South,180,0.0,0.0,71,0.00,,,0.00,VWS V14.01,2013-02-12 23:48:00,
2013-02-13 09:50:00,84.7,74.3,29.59,South,180,0.0,0.0,71,0.00,,,0.00,VWS V14.01,2013-02-12 23:50:00,
2013-02-13 09:51:00,85.1,74.6,29.59,South,180,0.0,0.0,71,0.00,,,0.00,VWS V14.01,2013-02-12 23:51:00,
2013-02-13 09:52:00,85.1,74.6,29.59,South,180,0.0,0.0,71,0.00,,,0.00,VWS V14.01,2013-02-12 23:52:00,
2013-02-13 09:53:00,85.3,74.8,29.59,South,180,0.0,0.0,71,0.00,,,0.00,VWS V14.01,2013-02-12 23:53:00,
2013-02-13 09:54:00,85.3,74.8,29.59,South,180,0.0,0.0,71,0.00,,,0.00,VWS V14.01,2013-02-12 23:54:00,
2013-02-13 09:55:00,85.3,74.4,29.59,South,180,0.0,0.0,70,0.00,,,0.00,VWS V14.01,2013-02-12 23:55:00,
2013-02-13 09:56:00,85.3,74.4,29.59,South,180,0.0,0.0,70,0.00,,,0.00,VWS V14.01,2013-02-12 23:56:00,
2013-02-13 09:57:00,85.5,74.6,29.59,South,180,0.0,0.0,70,0.00,,,0.00,VWS V14.01,2013-02-12 23:57:00,
2013-02-13 09:58:00,85.6,74.7,29.59,South,180,0.0,0.0,70,0.00,,,0.00,VWS V14.01,2013-02-12 23:58:00,
2013-02-13 09:59:00,85.6,74.7,29.59,South,180,0.0,0.0,70,0.00,,,0.00,VWS V14.01,2013-02-12 23:59:00,
2013-02-13 10:00:00,85.6,74.7,29.59,South,180,0.0,0.0,70,0.00,,,0.00,VWS V14.01,2013-02-13 00:00:00,
2013-02-13 10:01:00,85.6,74.7,29.59,South,180,0.0,0.0,70,0.00,,,0.00,VWS V14.01,2013-02-13 00:01:00,
2013-02-13 10:02:00,85.6,74.7,29.59,South,180,0.0,0.0,70,0.00,,,0.00,VWS V14.01,2013-02-13 00:02:00,
2013-02-13 10:03:00,85.6,74.7,29.59,South,180,0.0,0.0,70,0.00,,,0.00,VWS V14.01,2013-02-13 00:03:00,
2013-02-13 10:04:00,85.8,74.5,29.59,South,180,0.0,0.0,69,0.00,,,0.00,VWS V14.01,2013-02-13 00:04:00,
2013-02-13 10:05:00,85.8,74.0,29.59,South,180,0.0,0.0,68,0.00,,,0.00,VWS V14.01,2013-02-13 00:05:00,
2013-02-13 10:06:00,85.8,74.0,29.59,South,180,0.0,0.0,68,0.00,,,0.00,VWS V14.01,2013-02-13 00:06:00,
2013-02-13 10:07:00,85.8,74.5,29.59,South,180,0.0,0.0,69,0.00,,,0.00,VWS V14.01,2013-02-13 00:07:00,
2013-02-13 10:08:00,85.8,74.5,29.59,South,180,0.0,0.0,69,0.00,,,0.00,VWS V14.01,2013-02-13 00:08:00,
2013-02-13 10:09:00,86.0,74.2,29.59,South,180,0.0,0.0,68,0.00,,,0.00,VWS V14.01,2013-02-13 00:09:00,
2013-02-13 10:10:00,86.0,74.2,29.59,South,180,0.0,0.0,68,0.00,,,0.00,VWS V14.01,2013-02-13 00:10:00,
2013-02-13 10:11:00,86.2,74.4,29.59,South,180,0.0,0.0,68,0.00,,,0.00,VWS V14.01,2013-02-13 00:11:00,
2013-02-13 10:12:00,86.2,74.4,29.59,South,180,0.0,0.0,68,0.00,,,0.00,VWS V14.01,2013-02-13 00:12:00,
2013-02-13 10:13:00,86.2,74.4,29.59,South,180,0.0,0.0,68,0.00,,,0.00,VWS V14.01,2013-02-13 00:13:00,
2013-02-13 10:14:00,86.4,74.6,29.59,South,180,0.0,0.0,68,0.00,,,0.00,VWS V14.01,2013-02-13 00:14:00,
2013-02-13 10:15:00,86.4,74.6,29.59,South,180,0.0,0.0,68,0.00,,,0.00,VWS V14.01,2013-02-13 00:15:00,
2013-02-13 10:16:00,86.4,74.6,29.59,South,180,0.0,0.0,68,0.00,,,0.00,VWS V14.01,2013-02-13 00:16:00,
2013-02-13 10:17:00,86.4,74.6,29.59,South,180,0.0,0.0,68,0.00,,,0.00,VWS V14.01,2013-02-13 00:17:00,
2013-02-13 10:18:00,86.7,74.9,29.59,South,180,0.0,0.0,68,0.00,,,0.00,VWS V14.01,2013-02-13 00:18:00,
2013-02-13 10:19:00,86.7,74.9,29.59,South,180,0.0,0.0,68,0.00,,,0.00,VWS V14.01,2013-02-13 00:19:00,
2013-02-13 10:20:00,86.9,75.1,29.59,South,180,0.0,0.0,68,0.00,,,0.00,VWS V14.01,2013-02-13 00:20:00,
2013-02-13 10:21:00,86.9,74.6,29.59,South,180,0.0,0.0,67,0.00,,,0.00,VWS V14.01,2013-02-13 00:21:00,
2013-02-13 10:22:00,86.9,74.6,29.59,South,180,0.0,0.0,67,0.00,,,0.00,VWS V14.01,2013-02-13 00:22:00,
2013-02-13 10:23:00,87.1,74.8,29.59,South,180,0.0,0.0,67,0.00,,,0.00,VWS V14.01,2013-02-13 00:23:00,
2013-02-13 10:24:00,87.1,74.8,29.59,South,180,0.0,0.0,67,0.00,,,0.00,VWS V14.01,2013-02-13 00:24:00,
2013-02-13 10:25:00,87.1,74.8,29.59,South,180,0.0,0.0,67,0.00,,,0.00,VWS V14.01,2013-02-13 00:25:00,
2013-02-13 10:26:00,87.1,74.8,29.59,South,180,0.0,0.0,67,0.00,,,0.00,VWS V14.01,2013-02-13 00:26:00,
2013-02-13 10:27:00,87.3,75.0,29.59,South,180,0.0,0.0,67,0.00,,,0.00,VWS V14.01,2013-02-13 00:27:00,
2013-02-13 10:28:00,87.4,75.1,29.59,South,180,0.0,0.0,67,0.00,,,0.00,VWS V14.01,2013-02-13 00:28:00,
2013-02-13 10:29:00,87.4,75.1,29.59,South,180,0.0,0.0,67,0.00,,,0.00,VWS V14.01,2013-02-13 00:29:00,
2013-02-13 10:30:00,87.4,75.1,29.59,South,180,0.0,0.0,67,0.00,,,0.00,VWS V14.01,2013-02-13 00:30:00,
2013-02-13 10:31:00,87.4,75.1,29.59,South,180,0.0,0.0,67,0.00,,,0.00,VWS V14.01,2013-02-13 00:31:00,
2013-02-13 10:32:00,87.6,75.3,29.59,South,180,0.0,0.0,67,0.00,,,0.00,VWS V14.01,2013-02-13 00:32:00,
2013-02-13 10:33:00,87.6,75.3,29.59,South,180,0.0,0.0,67,0.00,,,0.00,VWS V14.01,2013-02-13 00:33:00,
2013-02-13 10:34:00,87.4,75.1,29.59,South,180,0.0,0.0,67,0.00,,,0.00,VWS V14.01,2013-02-13 00:34:00,
2013-02-13 10:35:00,87.4,75.1,29.59,South,180,0.0,0.0,67,0.00,,,0.00,VWS V14.01,2013-02-13 00:35:00,
2013-02-13 10:36:00,87.4,75.1,29.59,South,180,0.0,0.0,67,0.00,,,0.00,VWS V14.01,2013-02-13 00:36:00,
2013-02-13 10:37:00,87.6,75.3,29.59,South,180,0.0,0.0,67,0.00,,,0.00,VWS V14.01,2013-02-13 00:37:00,
2013-02-13 10:38:00,87.6,75.3,29.59,South,180,0.0,0.0,67,0.00,,,0.00,VWS V14.01,2013-02-13 00:38:00,
2013-02-13 10:39:00,87.6,75.3,29.59,South,180,0.0,0.0,67,0.00,,,0.00,VWS V14.01,2013-02-13 00:39:00,
2013-02-13 10:40:00,87.6,75.3,29.59,South,180,0.0,0.0,67,0.00,,,0.00,VWS V14.01,2013-02-13 00:40:00,
2013-02-13 10:41:00,87.6,75.3,29.59,South,180,0.0,0.0,67,0.00,,,0.00,VWS V14.01,2013-02-13 00:41:00,
2013-02-13 10:42:00,87.6,75.3,29.56,South,180,0.0,0.0,67,0.00,,,0.00,VWS V14.01,2013-02-13 00:42:00,
2013-02-13 10:43:00,87.6,75.3,29.56,South,180,0.0,0.0,67,0.00,,,0.00,VWS V14.01,2013-02-13 00:43:00,
2013-02-13 10:44:00,87.4,75.1,29.56,South,180,0.0,0.0,67,0.00,,,0.00,VWS V14.01,2013-02-13 00:44:00,
2013-02-13 10:45:00,87.4,75.1,29.56,South,180,0.0,0.0,67,0.00,,,0.00,VWS V14.01,2013-02-13 00:45:00,
2013-02-13 10:46:00,87.4,75.1,29.56,South,180,0.0,0.0,67,0.00,,,0.00,VWS V14.01,2013-02-13 00:46:00,
2013-02-13 10:47:00,87.4,75.1,29.56,South,180,0.0,0.0,67,0.00,,,0.00,VWS V14.01,2013-02-13 00:47:00,
2013-02-13 10:48:00,87.4,75.1,29.56,South,180,0.0,0.0,67,0.00,,,0.00,VWS V14.01,2013-02-13 00:48:00,
2013-02-13 10:49:00,87.4,75.1,29.56,South,180,0.0,0.0,67,0.00,,,0.00,VWS V14.01,2013-02-13 00:49:00,
2013-02-13 10:50:00,87.4,75.1,29.56,South,180,0.0,0.0,67,0.00,,,0.00,VWS V14.01,2013-02-13 00:50:00,
2013-02-13 10:51:00,87.3,75.0,29.56,South,180,0.0,0.0,67,0.00,,,0.00,VWS V14.01,2013-02-13 00:51:00,
2013-02-13 10:52:00,87.3,75.0,29.56,South,180,0.0,0.0,67,0.00,,,0.00,VWS V14.01,2013-02-13 00:52:00,
2013-02-13 10:53:00,87.3,75.0,29.56,South,180,0.0,0.0,67,0.00,,,0.00,VWS V14.01,2013-02-13 00:53:00,
2013-02-13 10:54:00,87.3,75.0,29.56,South,180,0.0,0.0,67,0.00,,,0.00,VWS V14.01,2013-02-13 00:54:00,
2013-02-13 10:55:00,87.6,75.8,29.56,South,180,0.0,0.0,68,0.00,,,0.00,VWS V14.01,2013-02-13 00:55:00,
2013-02-13 10:56:00,87.6,75.8,29.56,South,180,0.0,0.0,68,0.00,,,0.00,VWS V14.01,2013-02-13 00:56:00,
2013-02-13 10:58:00,87.4,74.7,29.59,South,180,0.0,0.0,66,0.00,,,0.00,VWS V14.01,2013-02-13 00:58:00,
2013-02-13 10:59:00,87.4,74.7,29.59,South,180,0.0,0.0,66,0.00,,,0.00,VWS V14.01,2013-02-13 00:59:00,
2013-02-13 11:00:00,87.3,74.5,29.59,South,180,0.0,0.0,66,0.00,,,0.00,VWS V14.01,2013-02-13 01:00:00,
2013-02-13 11:01:00,87.3,74.5,29.59,South,180,0.0,0.0,66,0.00,,,0.00,VWS V14.01,2013-02-13 01:01:00,
2013-02-13 11:02:00,87.1,74.3,29.59,South,180,0.0,0.0,66,0.00,,,0.00,VWS V14.01,2013-02-13 01:02:00,
2013-02-13 11:03:00,87.1,74.3,29.59,South,180,0.0,0.0,66,0.00,,,0.00,VWS V14.01,2013-02-13 01:03:00,
2013-02-13 11:04:00,87.1,74.3,29.59,South,180,0.0,0.0,66,0.00,,,0.00,VWS V14.01,2013-02-13 01:04:00,
2013-02-13 11:05:00,87.1,74.3,29.59,South,180,0.0,0.0,66,0.00,,,0.00,VWS V14.01,2013-02-13 01:05:00,
2013-02-13 11:06:00,86.9,74.2,29.59,South,180,0.0,0.0,66,0.00,,,0.00,VWS V14.01,2013-02-13 01:06:00,
2013-02-13 11:07:00,86.7,74.0,29.59,South,180,0.0,0.0,66,0.00,,,0.00,VWS V14.01,2013-02-13 01:07:00,
2013-02-13 11:08:00,86.4,73.7,29.59,South,180,0.0,0.0,66,0.00,,,0.00,VWS V14.01,2013-02-13 01:08:00,
2013-02-13 11:09:00,86.4,73.7,29.59,South,180,0.0,0.0,66,0.00,,,0.00,VWS V14.01,2013-02-13 01:09:00,
2013-02-13 11:10:00,86.4,73.7,29.59,South,180,0.0,0.0,66,0.00,,,0.00,VWS V14.01,2013-02-13 01:10:00,
2013-02-13 11:11:00,86.2,73.9,29.59,South,180,0.0,0.0,67,0.00,,,0.00,VWS V14.01,2013-02-13 01:11:00,
2013-02-13 11:12:00,86.2,73.9,29.59,South,180,0.0,0.0,67,0.00,,,0.00,VWS V14.01,2013-02-13 01:12:00,
2013-02-13 11:13:00,86.4,74.1,29.59,South,180,0.0,0.0,67,0.00,,,0.00,VWS V14.01,2013-02-13 01:13:00,
2013-02-13 11:14:00,86.5,74.7,29.59,South,180,0.0,0.0,68,0.00,,,0.00,VWS V14.01,2013-02-13 01:14:00,
2013-02-13 11:15:00,86.5,74.7,29.59,South,180,0.0,0.0,68,0.00,,,0.00,VWS V14.01,2013-02-13 01:15:00,
2013-02-13 11:16:00,86.5,74.7,29.59,South,180,0.0,0.0,68,0.00,,,0.00,VWS V14.01,2013-02-13 01:16:00,
2013-02-13 11:17:00,86.5,74.7,29.59,South,180,0.0,0.0,68,0.00,,,0.00,VWS V14.01,2013-02-13 01:17:00,
2013-02-13 11:18:00,86.7,74.9,29.59,South,180,0.0,0.0,68,0.00,,,0.00,VWS V14.01,2013-02-13 01:18:00,
2013-02-13 11:19:00,86.7,74.9,29.59,South,180,0.0,0.0,68,0.00,,,0.00,VWS V14.01,2013-02-13 01:19:00,
2013-02-13 11:20:00,87.1,75.2,29.59,South,180,0.0,0.0,68,0.00,,,0.00,VWS V14.01,2013-02-13 01:20:00,
2013-02-13 11:21:00,87.1,75.2,29.59,South,180,0.0,0.0,68,0.00,,,0.00,VWS V14.01,2013-02-13 01:21:00,
2013-02-13 11:22:00,87.1,75.2,29.59,South,180,0.0,0.0,68,0.00,,,0.00,VWS V14.01,2013-02-13 01:22:00,
2013-02-13 11:23:00,87.1,75.2,29.59,South,180,0.0,0.0,68,0.00,,,0.00,VWS V14.01,2013-02-13 01:23:00,
2013-02-13 11:24:00,87.1,75.2,29.59,South,180,0.0,0.0,68,0.00,,,0.00,VWS V14.01,2013-02-13 01:24:00,
2013-02-13 11:25:00,87.1,74.8,29.59,South,180,0.0,0.0,67,0.00,,,0.00,VWS V14.01,2013-02-13 01:25:00,
2013-02-13 11:26:00,87.1,74.8,29.59,South,180,0.0,0.0,67,0.00,,,0.00,VWS V14.01,2013-02-13 01:26:00,
2013-02-13 11:27:00,87.3,74.5,29.56,South,180,0.0,0.0,66,0.00,,,0.00,VWS V14.01,2013-02-13 01:27:00,
2013-02-13 11:28:00,87.3,74.5,29.56,South,180,0.0,0.0,66,0.00,,,0.00,VWS V14.01,2013-02-13 01:28:00,
2013-02-13 11:29:00,87.6,75.3,29.56,South,180,0.0,0.0,67,0.00,,,0.00,VWS V14.01,2013-02-13 01:29:00,
2013-02-13 11:30:00,87.6,74.9,29.56,South,180,0.0,0.0,66,0.00,,,0.00,VWS V14.01,2013-02-13 01:30:00,
2013-02-13 11:31:00,87.6,74.9,29.56,South,180,0.0,0.0,66,0.00,,,0.00,VWS V14.01,2013-02-13 01:31:00,
2013-02-13 11:32:00,87.8,75.0,29.56,South,180,0.0,0.0,66,0.00,,,0.00,VWS V14.01,2013-02-13 01:32:00,
2013-02-13 11:33:00,87.8,75.0,29.56,South,180,0.0,0.0,66,0.00,,,0.00,VWS V14.01,2013-02-13 01:33:00,
2013-02-13 11:34:00,88.0,75.2,29.56,South,180,0.0,0.0,66,0.00,,,0.00,VWS V14.01,2013-02-13 01:34:00,
2013-02-13 11:35:00,88.0,75.2,29.56,South,180,0.0,0.0,66,0.00,,,0.00,VWS V14.01,2013-02-13 01:35:00,
2013-02-13 11:36:00,88.2,75.4,29.56,South,180,0.0,0.0,66,0.00,,,0.00,VWS V14.01,2013-02-13 01:36:00,
2013-02-13 11:37:00,88.2,75.4,29.56,South,180,0.0,0.0,66,0.00,,,0.00,VWS V14.01,2013-02-13 01:37:00,
2013-02-13 11:38:00,88.2,75.4,29.56,South,180,0.0,0.0,66,0.00,,,0.00,VWS V14.01,2013-02-13 01:38:00,
2013-02-13 11:39:00,88.2,74.9,29.56,South,180,0.0,0.0,65,0.00,,,0.00,VWS V14.01,2013-02-13 01:39:00,
2013-02-13 11:40:00,88.2,74.9,29.56,South,180,0.0,0.0,65,0.00,,,0.00,VWS V14.01,2013-02-13 01:40:00,
2013-02-13 11:41:00,88.2,75.4,29.56,South,180,0.0,0.0,66,0.00,,,0.00,VWS V14.01,2013-02-13 01:41:00,
2013-02-13 11:42:00,88.2,75.4,29.56,South,180,0.0,0.0,66,0.00,,,0.00,VWS V14.01,2013-02-13 01:42:00,
2013-02-13 11:43:00,88.2,74.9,29.56,South,180,0.0,0.0,65,0.00,,,0.00,VWS V14.01,2013-02-13 01:43:00,
2013-02-13 11:44:00,88.2,74.9,29.56,South,180,0.0,0.0,65,0.00,,,0.00,VWS V14.01,2013-02-13 01:44:00,
2013-02-13 11:45:00,88.2,74.9,29.56,South,180,0.0,0.0,65,0.00,,,0.00,VWS V14.01,2013-02-13 01:45:00,
2013-02-13 11:46:00,88.2,74.9,29.56,South,180,0.0,0.0,65,0.00,,,0.00,VWS V14.01,2013-02-13 01:46:00,
2013-02-13 11:47:00,88.2,74.9,29.56,South,180,0.0,0.0,65,0.00,,,0.00,VWS V14.01,2013-02-13 01:47:00,
2013-02-13 11:48:00,88.5,75.3,29.56,South,180,0.0,0.0,65,0.00,,,0.00,VWS V14.01,2013-02-13 01:48:00,
2013-02-13 11:49:00,88.5,75.3,29.56,South,180,0.0,0.0,65,0.00,,,0.00,VWS V14.01,2013-02-13 01:49:00,
2013-02-13 11:50:00,88.5,74.8,29.56,South,180,0.0,0.0,64,0.00,,,0.00,VWS V14.01,2013-02-13 01:50:00,
2013-02-13 11:51:00,88.5,74.8,29.56,South,180,0.0,0.0,64,0.00,,,0.00,VWS V14.01,2013-02-13 01:51:00,
2013-02-13 11:52:00,88.5,74.8,29.56,South,180,0.0,0.0,64,0.00,,,0.00,VWS V14.01,2013-02-13 01:52:00,
2013-02-13 11:53:00,88.3,74.6,29.56,South,180,0.0,0.0,64,0.00,,,0.00,VWS V14.01,2013-02-13 01:53:00,
2013-02-13 11:54:00,88.3,74.6,29.56,South,180,0.0,0.0,64,0.00,,,0.00,VWS V14.01,2013-02-13 01:54:00,
2013-02-13 11:55:00,88.5,74.8,29.56,South,180,0.0,0.0,64,0.00,,,0.00,VWS V14.01,2013-02-13 01:55:00,
2013-02-13 11:56:00,88.5,74.8,29.56,South,180,0.0,0.0,64,0.00,,,0.00,VWS V14.01,2013-02-13 01:56:00,
2013-02-13 11:57:00,88.7,75.4,29.56,South,180,0.0,0.0,65,0.00,,,0.00,VWS V14.01,2013-02-13 01:57:00,
2013-02-13 11:58:00,88.7,75.4,29.56,South,180,0.0,0.0,65,0.00,,,0.00,VWS V14.01,2013-02-13 01:58:00,
2013-02-13 11:59:00,88.7,75.4,29.56,South,180,0.0,0.0,65,0.00,,,0.00,VWS V14.01,2013-02-13 01:59:00,
2013-02-13 12:00:00,88.9,75.1,29.56,South,180,0.0,0.0,64,0.00,,,0.00,VWS V14.01,2013-02-13 02:00:00,
2013-02-13 12:01:00,88.9,75.1,29.56,South,180,0.0,0.0,64,0.00,,,0.00,VWS V14.01,2013-02-13 02:01:00,
2013-02-13 12:02:00,88.7,75.0,29.56,South,180,0.0,0.0,64,0.00,,,0.00,VWS V14.01,2013-02-13 02:02:00,
2013-02-13 12:03:00,88.7,75.0,29.56,South,180,0.0,0.0,64,0.00,,,0.00,VWS V14.01,2013-02-13 02:03:00,
2013-02-13 12:04:00,88.7,75.0,29.56,South,180,0.0,0.0,64,0.00,,,0.00,VWS V14.01,2013-02-13 02:04:00,
2013-02-13 12:05:00,88.7,75.0,29.56,South,180,0.0,0.0,64,0.00,,,0.00,VWS V14.01,2013-02-13 02:05:00,
2013-02-13 12:06:00,88.5,74.3,29.56,South,180,0.0,0.0,63,0.00,,,0.00,VWS V14.01,2013-02-13 02:06:00,
2013-02-13 12:07:00,88.9,75.1,29.56,South,180,0.0,0.0,64,0.00,,,0.00,VWS V14.01,2013-02-13 02:07:00,
2013-02-13 12:08:00,88.9,75.1,29.56,South,180,0.0,0.0,64,0.00,,,0.00,VWS V14.01,2013-02-13 02:08:00,
2013-02-13 12:09:00,89.2,75.9,29.56,South,180,0.0,0.0,65,0.00,,,0.00,VWS V14.01,2013-02-13 02:09:00,
2013-02-13 12:10:00,89.2,75.9,29.56,South,180,0.0,0.0,65,0.00,,,0.00,VWS V14.01,2013-02-13 02:10:00,
2013-02-13 12:11:00,89.1,75.8,29.56,South,180,0.0,0.0,65,0.00,,,0.00,VWS V14.01,2013-02-13 02:11:00,
2013-02-13 12:12:00,89.1,75.8,29.56,South,180,0.0,0.0,65,0.00,,,0.00,VWS V14.01,2013-02-13 02:12:00,
2013-02-13 12:13:00,89.2,75.5,29.56,South,180,0.0,0.0,64,0.00,,,0.00,VWS V14.01,2013-02-13 02:13:00,
2013-02-13 12:14:00,89.2,75.5,29.56,South,180,0.0,0.0,64,0.00,,,0.00,VWS V14.01,2013-02-13 02:14:00,
2013-02-13 12:15:00,89.2,75.5,29.56,South,180,0.0,0.0,64,0.00,,,0.00,VWS V14.01,2013-02-13 02:15:00,
2013-02-13 12:16:00,88.7,75.0,29.56,South,180,0.0,0.0,64,0.00,,,0.00,VWS V14.01,2013-02-13 02:16:00,
2013-02-13 12:17:00,88.7,75.0,29.56,South,180,0.0,0.0,64,0.00,,,0.00,VWS V14.01,2013-02-13 02:17:00,
2013-02-13 12:18:00,88.9,75.1,29.56,South,180,0.0,0.0,64,0.00,,,0.00,VWS V14.01,2013-02-13 02:18:00,
2013-02-13 12:19:00,88.9,75.1,29.56,South,180,0.0,0.0,64,0.00,,,0.00,VWS V14.01,2013-02-13 02:19:00,
2013-02-13 12:20:00,88.9,75.1,29.56,South,180,0.0,0.0,64,0.00,,,0.00,VWS V14.01,2013-02-13 02:20:00,
2013-02-13 12:21:00,88.9,75.1,29.56,South,180,0.0,0.0,64,0.00,,,0.00,VWS V14.01,2013-02-13 02:21:00,
2013-02-13 12:22:00,88.7,75.0,29.56,South,180,0.0,0.0,64,0.00,,,0.00,VWS V14.01,2013-02-13 02:22:00,
2013-02-13 12:23:00,88.9,75.1,29.56,South,180,0.0,0.0,64,0.00,,,0.00,VWS V14.01,2013-02-13 02:23:00,
2013-02-13 12:24:00,88.9,75.1,29.56,South,180,0.0,0.0,64,0.00,,,0.00,VWS V14.01,2013-02-13 02:24:00,
2013-02-13 12:25:00,88.9,75.1,29.56,South,180,0.0,0.0,64,0.00,,,0.00,VWS V14.01,2013-02-13 02:25:00,
2013-02-13 12:26:00,88.9,75.1,29.56,South,180,0.0,0.0,64,0.00,,,0.00,VWS V14.01,2013-02-13 02:26:00,
2013-02-13 12:27:00,88.9,75.1,29.56,South,180,0.0,0.0,64,0.00,,,0.00,VWS V14.01,2013-02-13 02:27:00,
2013-02-13 12:28:00,88.9,75.1,29.56,South,180,0.0,0.0,64,0.00,,,0.00,VWS V14.01,2013-02-13 02:28:00,
2013-02-13 12:29:00,88.9,75.1,29.56,South,180,0.0,0.0,64,0.00,,,0.00,VWS V14.01,2013-02-13 02:29:00,
2013-02-13 12:30:00,89.1,75.3,29.56,South,180,0.0,0.0,64,0.00,,,0.00,VWS V14.01,2013-02-13 02:30:00,
2013-02-13 12:31:00,89.1,75.3,29.56,South,180,0.0,0.0,64,0.00,,,0.00,VWS V14.01,2013-02-13 02:31:00,